sensor_id;sensor_type;location;lat;lon;timestamp;temperature;humidity
2024;DHT22;1016;48.770;9.154;2023-07-20T00:00:26;23.50;82.00
2024;DHT22;1016;48.770;9.154;2023-07-20T00:02:52;23.60;82.40
2024;DHT22;1016;48.770;9.154;2023-07-20T00:05:18;23.60;81.60
2024;DHT22;1016;48.770;9.154;2023-07-20T00:07:44;23.40;81.20
2024;DHT22;1016;48.770;9.154;2023-07-20T00:10:09;23.40;81.10
2024;DHT22;1016;48.770;9.154;2023-07-20T00:12:35;23.50;81.20
2024;DHT22;1016;48.770;9.154;2023-07-20T00:15:01;23.40;80.50
2024;DHT22;1016;48.770;9.154;2023-07-20T00:17:28;23.50;79.70
2024;DHT22;1016;48.770;9.154;2023-07-20T00:19:56;23.30;79.70
2024;DHT22;1016;48.770;9.154;2023-07-20T00:22:22;23.30;79.20
2024;DHT22;1016;48.770;9.154;2023-07-20T00:24:47;23.30;80.00
2024;DHT22;1016;48.770;9.154;2023-07-20T00:27:17;23.30;79.20
2024;DHT22;1016;48.770;9.154;2023-07-20T00:29:44;23.30;79.20
2024;DHT22;1016;48.770;9.154;2023-07-20T00:32:09;23.20;79.30
2024;DHT22;1016;48.770;9.154;2023-07-20T00:34:35;23.40;78.80
2024;DHT22;1016;48.770;9.154;2023-07-20T00:37:00;23.20;78.90
2024;DHT22;1016;48.770;9.154;2023-07-20T00:39:26;23.30;78.80
2024;DHT22;1016;48.770;9.154;2023-07-20T00:41:51;23.20;78.70
2024;DHT22;1016;48.770;9.154;2023-07-20T00:44:19;23.30;79.10
2024;DHT22;1016;48.770;9.154;2023-07-20T00:46:45;23.20;79.30
2024;DHT22;1016;48.770;9.154;2023-07-20T00:49:11;23.20;78.90
2024;DHT22;1016;48.770;9.154;2023-07-20T00:51:37;23.30;79.10
2024;DHT22;1016;48.770;9.154;2023-07-20T00:54:03;23.20;79.30
2024;DHT22;1016;48.770;9.154;2023-07-20T00:56:29;23.10;79.10
2024;DHT22;1016;48.770;9.154;2023-07-20T00:58:54;23.10;79.40
2024;DHT22;1016;48.770;9.154;2023-07-20T01:04:42;23.10;79.60
2024;DHT22;1016;48.770;9.154;2023-07-20T01:07:32;23.00;79.70
2024;DHT22;1016;48.770;9.154;2023-07-20T01:10:04;22.90;80.00
2024;DHT22;1016;48.770;9.154;2023-07-20T01:12:56;23.00;80.30
2024;DHT22;1016;48.770;9.154;2023-07-20T01:18:39;22.90;80.00
2024;DHT22;1016;48.770;9.154;2023-07-20T01:24:39;22.80;80.50
2024;DHT22;1016;48.770;9.154;2023-07-20T01:27:32;22.90;81.00
2024;DHT22;1016;48.770;9.154;2023-07-20T01:32:51;22.90;81.40
2024;DHT22;1016;48.770;9.154;2023-07-20T01:35:19;22.90;81.70
2024;DHT22;1016;48.770;9.154;2023-07-20T01:37:46;22.90;81.70
2024;DHT22;1016;48.770;9.154;2023-07-20T01:40:15;22.80;81.60
2024;DHT22;1016;48.770;9.154;2023-07-20T01:42:46;22.80;82.00
2024;DHT22;1016;48.770;9.154;2023-07-20T01:45:12;22.70;82.10
2024;DHT22;1016;48.770;9.154;2023-07-20T01:47:37;22.70;82.40
2024;DHT22;1016;48.770;9.154;2023-07-20T01:50:03;22.60;82.40
2024;DHT22;1016;48.770;9.154;2023-07-20T01:52:28;22.60;82.90
2024;DHT22;1016;48.770;9.154;2023-07-20T01:54:54;22.60;83.20
2024;DHT22;1016;48.770;9.154;2023-07-20T01:57:20;22.60;82.60
2024;DHT22;1016;48.770;9.154;2023-07-20T01:59:45;22.60;83.40
2024;DHT22;1016;48.770;9.154;2023-07-20T02:02:11;22.50;83.10
2024;DHT22;1016;48.770;9.154;2023-07-20T02:04:36;22.50;83.40
2024;DHT22;1016;48.770;9.154;2023-07-20T02:07:02;22.50;83.70
2024;DHT22;1016;48.770;9.154;2023-07-20T02:09:28;22.50;84.00
2024;DHT22;1016;48.770;9.154;2023-07-20T02:11:53;22.50;83.90
2024;DHT22;1016;48.770;9.154;2023-07-20T02:14:18;22.50;83.80
2024;DHT22;1016;48.770;9.154;2023-07-20T02:16:44;22.50;83.70
2024;DHT22;1016;48.770;9.154;2023-07-20T02:19:09;22.50;83.90
2024;DHT22;1016;48.770;9.154;2023-07-20T02:21:36;22.50;83.90
2024;DHT22;1016;48.770;9.154;2023-07-20T02:24:01;22.50;84.10
2024;DHT22;1016;48.770;9.154;2023-07-20T02:26:27;22.50;84.30
2024;DHT22;1016;48.770;9.154;2023-07-20T02:28:53;22.50;84.10
2024;DHT22;1016;48.770;9.154;2023-07-20T02:31:19;22.50;84.40
2024;DHT22;1016;48.770;9.154;2023-07-20T02:33:44;22.50;84.20
2024;DHT22;1016;48.770;9.154;2023-07-20T02:36:09;22.50;84.30
2024;DHT22;1016;48.770;9.154;2023-07-20T02:38:35;22.40;84.40
2024;DHT22;1016;48.770;9.154;2023-07-20T02:41:00;22.40;84.90
2024;DHT22;1016;48.770;9.154;2023-07-20T02:43:26;22.40;85.20
2024;DHT22;1016;48.770;9.154;2023-07-20T02:45:53;22.40;84.90
2024;DHT22;1016;48.770;9.154;2023-07-20T02:48:18;22.30;85.00
2024;DHT22;1016;48.770;9.154;2023-07-20T02:50:44;22.30;85.20
2024;DHT22;1016;48.770;9.154;2023-07-20T02:53:09;22.30;85.30
2024;DHT22;1016;48.770;9.154;2023-07-20T02:55:35;22.20;85.50
2024;DHT22;1016;48.770;9.154;2023-07-20T02:58:00;22.30;85.50
2024;DHT22;1016;48.770;9.154;2023-07-20T03:00:26;22.20;85.70
2024;DHT22;1016;48.770;9.154;2023-07-20T03:02:51;22.20;85.90
2024;DHT22;1016;48.770;9.154;2023-07-20T03:05:21;22.20;85.90
2024;DHT22;1016;48.770;9.154;2023-07-20T03:07:47;22.20;85.70
2024;DHT22;1016;48.770;9.154;2023-07-20T03:10:13;22.20;85.70
2024;DHT22;1016;48.770;9.154;2023-07-20T03:12:38;22.10;85.70
2024;DHT22;1016;48.770;9.154;2023-07-20T03:15:04;22.00;86.10
2024;DHT22;1016;48.770;9.154;2023-07-20T03:17:30;22.10;86.50
2024;DHT22;1016;48.770;9.154;2023-07-20T03:19:55;22.10;86.50
2024;DHT22;1016;48.770;9.154;2023-07-20T03:22:21;22.00;86.40
2024;DHT22;1016;48.770;9.154;2023-07-20T03:24:47;22.00;86.90
2024;DHT22;1016;48.770;9.154;2023-07-20T03:27:13;22.10;87.30
2024;DHT22;1016;48.770;9.154;2023-07-20T03:29:38;22.10;87.20
2024;DHT22;1016;48.770;9.154;2023-07-20T03:32:04;22.10;86.90
2024;DHT22;1016;48.770;9.154;2023-07-20T03:34:30;22.10;87.40
2024;DHT22;1016;48.770;9.154;2023-07-20T03:36:55;22.10;87.50
2024;DHT22;1016;48.770;9.154;2023-07-20T03:39:22;22.10;87.20
2024;DHT22;1016;48.770;9.154;2023-07-20T03:41:48;22.10;86.90
2024;DHT22;1016;48.770;9.154;2023-07-20T03:44:13;22.10;87.20
2024;DHT22;1016;48.770;9.154;2023-07-20T03:46:39;22.00;87.60
2024;DHT22;1016;48.770;9.154;2023-07-20T03:49:04;22.00;87.30
2024;DHT22;1016;48.770;9.154;2023-07-20T03:51:31;22.00;87.90
2024;DHT22;1016;48.770;9.154;2023-07-20T03:53:57;22.00;87.90
2024;DHT22;1016;48.770;9.154;2023-07-20T03:56:22;21.90;87.90
2024;DHT22;1016;48.770;9.154;2023-07-20T03:58:48;21.90;88.20
2024;DHT22;1016;48.770;9.154;2023-07-20T04:01:13;21.90;88.40
2024;DHT22;1016;48.770;9.154;2023-07-20T04:03:39;21.90;88.50
2024;DHT22;1016;48.770;9.154;2023-07-20T04:06:04;21.90;88.90
2024;DHT22;1016;48.770;9.154;2023-07-20T04:08:30;21.90;89.00
2024;DHT22;1016;48.770;9.154;2023-07-20T04:10:55;21.90;89.30
2024;DHT22;1016;48.770;9.154;2023-07-20T04:13:21;22.00;89.30
2024;DHT22;1016;48.770;9.154;2023-07-20T04:15:47;22.00;89.20
2024;DHT22;1016;48.770;9.154;2023-07-20T04:18:13;22.00;89.40
2024;DHT22;1016;48.770;9.154;2023-07-20T04:20:38;22.00;89.60
2024;DHT22;1016;48.770;9.154;2023-07-20T04:23:04;22.00;89.40
2024;DHT22;1016;48.770;9.154;2023-07-20T04:25:29;21.90;89.50
2024;DHT22;1016;48.770;9.154;2023-07-20T04:28:05;22.00;90.00
2024;DHT22;1016;48.770;9.154;2023-07-20T04:30:34;22.00;90.00
2024;DHT22;1016;48.770;9.154;2023-07-20T04:33:00;22.00;90.20
2024;DHT22;1016;48.770;9.154;2023-07-20T04:35:46;22.00;90.00
2024;DHT22;1016;48.770;9.154;2023-07-20T04:38:13;22.00;90.20
2024;DHT22;1016;48.770;9.154;2023-07-20T04:40:38;22.00;90.10
2024;DHT22;1016;48.770;9.154;2023-07-20T04:43:04;22.00;90.30
2024;DHT22;1016;48.770;9.154;2023-07-20T04:45:29;22.00;90.20
2024;DHT22;1016;48.770;9.154;2023-07-20T04:47:55;22.00;90.30
2024;DHT22;1016;48.770;9.154;2023-07-20T04:50:20;22.00;90.50
2024;DHT22;1016;48.770;9.154;2023-07-20T04:52:46;22.00;90.60
2024;DHT22;1016;48.770;9.154;2023-07-20T04:55:11;22.00;90.70
2024;DHT22;1016;48.770;9.154;2023-07-20T04:57:37;22.00;90.60
2024;DHT22;1016;48.770;9.154;2023-07-20T05:00:03;22.00;90.60
2024;DHT22;1016;48.770;9.154;2023-07-20T05:02:28;22.00;90.60
2024;DHT22;1016;48.770;9.154;2023-07-20T05:04:54;22.00;90.80
2024;DHT22;1016;48.770;9.154;2023-07-20T05:07:20;22.10;90.80
2024;DHT22;1016;48.770;9.154;2023-07-20T05:09:45;22.10;90.80
2024;DHT22;1016;48.770;9.154;2023-07-20T05:12:11;22.10;90.90
2024;DHT22;1016;48.770;9.154;2023-07-20T05:14:38;22.20;90.80
2024;DHT22;1016;48.770;9.154;2023-07-20T05:17:03;22.10;90.90
2024;DHT22;1016;48.770;9.154;2023-07-20T05:19:29;22.20;91.10
2024;DHT22;1016;48.770;9.154;2023-07-20T05:21:54;22.20;90.90
2024;DHT22;1016;48.770;9.154;2023-07-20T05:24:20;22.20;90.90
2024;DHT22;1016;48.770;9.154;2023-07-20T05:26:45;22.20;90.90
2024;DHT22;1016;48.770;9.154;2023-07-20T05:29:11;22.30;91.10
2024;DHT22;1016;48.770;9.154;2023-07-20T05:31:36;22.20;91.10
2024;DHT22;1016;48.770;9.154;2023-07-20T05:34:02;22.30;91.50
2024;DHT22;1016;48.770;9.154;2023-07-20T05:36:27;22.30;91.30
2024;DHT22;1016;48.770;9.154;2023-07-20T05:38:53;22.30;91.50
2024;DHT22;1016;48.770;9.154;2023-07-20T05:41:18;22.30;91.60
2024;DHT22;1016;48.770;9.154;2023-07-20T05:43:44;22.30;91.60
2024;DHT22;1016;48.770;9.154;2023-07-20T05:46:29;22.30;91.70
2024;DHT22;1016;48.770;9.154;2023-07-20T05:48:55;22.30;91.70
2024;DHT22;1016;48.770;9.154;2023-07-20T05:51:20;22.40;91.90
2024;DHT22;1016;48.770;9.154;2023-07-20T05:53:46;22.50;91.70
2024;DHT22;1016;48.770;9.154;2023-07-20T05:56:13;22.50;91.60
2024;DHT22;1016;48.770;9.154;2023-07-20T05:58:39;22.50;91.70
2024;DHT22;1016;48.770;9.154;2023-07-20T06:01:04;22.50;91.80
2024;DHT22;1016;48.770;9.154;2023-07-20T06:03:33;22.50;91.80
2024;DHT22;1016;48.770;9.154;2023-07-20T06:06:02;22.50;91.90
2024;DHT22;1016;48.770;9.154;2023-07-20T06:08:30;22.50;91.70
2024;DHT22;1016;48.770;9.154;2023-07-20T06:10:56;22.50;92.30
2024;DHT22;1016;48.770;9.154;2023-07-20T06:13:21;22.50;92.20
2024;DHT22;1016;48.770;9.154;2023-07-20T06:15:47;22.50;92.20
2024;DHT22;1016;48.770;9.154;2023-07-20T06:18:13;22.50;92.30
2024;DHT22;1016;48.770;9.154;2023-07-20T06:20:39;22.70;92.50
2024;DHT22;1016;48.770;9.154;2023-07-20T06:23:04;22.60;92.50
2024;DHT22;1016;48.770;9.154;2023-07-20T06:25:30;22.60;92.60
2024;DHT22;1016;48.770;9.154;2023-07-20T06:27:56;22.70;92.50
2024;DHT22;1016;48.770;9.154;2023-07-20T06:30:21;22.70;92.60
2024;DHT22;1016;48.770;9.154;2023-07-20T06:32:47;22.70;92.60
2024;DHT22;1016;48.770;9.154;2023-07-20T06:35:13;22.70;92.70
2024;DHT22;1016;48.770;9.154;2023-07-20T06:37:39;22.70;92.80
2024;DHT22;1016;48.770;9.154;2023-07-20T06:40:05;22.70;93.00
2024;DHT22;1016;48.770;9.154;2023-07-20T06:42:31;22.70;93.10
2024;DHT22;1016;48.770;9.154;2023-07-20T06:44:57;22.70;92.90
2024;DHT22;1016;48.770;9.154;2023-07-20T06:47:23;22.70;93.10
2024;DHT22;1016;48.770;9.154;2023-07-20T06:49:49;22.70;93.10
2024;DHT22;1016;48.770;9.154;2023-07-20T06:52:15;22.70;93.20
2024;DHT22;1016;48.770;9.154;2023-07-20T06:54:40;22.70;93.30
2024;DHT22;1016;48.770;9.154;2023-07-20T06:57:06;22.80;93.70
2024;DHT22;1016;48.770;9.154;2023-07-20T06:59:31;22.70;93.40
2024;DHT22;1016;48.770;9.154;2023-07-20T07:01:57;22.70;93.50
2024;DHT22;1016;48.770;9.154;2023-07-20T07:04:22;22.70;93.70
2024;DHT22;1016;48.770;9.154;2023-07-20T07:06:48;22.70;93.30
2024;DHT22;1016;48.770;9.154;2023-07-20T07:09:14;22.60;93.70
2024;DHT22;1016;48.770;9.154;2023-07-20T07:11:39;22.70;94.00
2024;DHT22;1016;48.770;9.154;2023-07-20T07:14:05;22.70;94.10
2024;DHT22;1016;48.770;9.154;2023-07-20T07:16:30;22.80;94.00
2024;DHT22;1016;48.770;9.154;2023-07-20T07:18:56;22.80;93.70
2024;DHT22;1016;48.770;9.154;2023-07-20T07:21:21;22.80;93.70
2024;DHT22;1016;48.770;9.154;2023-07-20T07:23:47;22.80;93.60
2024;DHT22;1016;48.770;9.154;2023-07-20T07:26:13;22.80;93.80
2024;DHT22;1016;48.770;9.154;2023-07-20T07:28:39;22.90;93.80
2024;DHT22;1016;48.770;9.154;2023-07-20T07:31:05;23.00;93.80
2024;DHT22;1016;48.770;9.154;2023-07-20T07:33:31;23.00;93.50
2024;DHT22;1016;48.770;9.154;2023-07-20T07:35:57;23.00;93.50
2024;DHT22;1016;48.770;9.154;2023-07-20T07:38:23;23.00;93.50
2024;DHT22;1016;48.770;9.154;2023-07-20T07:40:48;23.00;93.20
2024;DHT22;1016;48.770;9.154;2023-07-20T07:43:14;23.10;93.40
2024;DHT22;1016;48.770;9.154;2023-07-20T07:45:40;23.20;93.30
2024;DHT22;1016;48.770;9.154;2023-07-20T07:48:06;23.20;92.70
2024;DHT22;1016;48.770;9.154;2023-07-20T07:50:33;23.20;92.70
2024;DHT22;1016;48.770;9.154;2023-07-20T07:52:58;23.20;92.90
2024;DHT22;1016;48.770;9.154;2023-07-20T07:55:25;23.20;93.00
2024;DHT22;1016;48.770;9.154;2023-07-20T07:57:52;23.20;93.10
2024;DHT22;1016;48.770;9.154;2023-07-20T08:00:18;23.30;92.60
2024;DHT22;1016;48.770;9.154;2023-07-20T08:02:44;23.30;92.70
2024;DHT22;1016;48.770;9.154;2023-07-20T08:05:12;23.30;92.80
2024;DHT22;1016;48.770;9.154;2023-07-20T08:07:38;23.40;92.50
2024;DHT22;1016;48.770;9.154;2023-07-20T08:10:04;23.50;92.40
2024;DHT22;1016;48.770;9.154;2023-07-20T08:12:30;23.50;92.30
2024;DHT22;1016;48.770;9.154;2023-07-20T08:14:56;23.60;92.10
2024;DHT22;1016;48.770;9.154;2023-07-20T08:17:21;23.60;91.80
2024;DHT22;1016;48.770;9.154;2023-07-20T08:19:47;23.60;91.60
2024;DHT22;1016;48.770;9.154;2023-07-20T08:22:12;23.70;91.10
2024;DHT22;1016;48.770;9.154;2023-07-20T08:24:42;23.70;90.80
2024;DHT22;1016;48.770;9.154;2023-07-20T08:27:08;23.70;90.80
2024;DHT22;1016;48.770;9.154;2023-07-20T08:29:35;23.70;90.30
2024;DHT22;1016;48.770;9.154;2023-07-20T08:32:01;23.70;90.20
2024;DHT22;1016;48.770;9.154;2023-07-20T08:34:26;23.80;89.80
2024;DHT22;1016;48.770;9.154;2023-07-20T08:36:52;23.80;89.20
2024;DHT22;1016;48.770;9.154;2023-07-20T08:39:17;23.80;89.10
2024;DHT22;1016;48.770;9.154;2023-07-20T08:41:43;23.80;88.70
2024;DHT22;1016;48.770;9.154;2023-07-20T08:44:10;23.90;89.10
2024;DHT22;1016;48.770;9.154;2023-07-20T08:46:38;23.80;88.10
2024;DHT22;1016;48.770;9.154;2023-07-20T08:49:04;23.80;88.10
2024;DHT22;1016;48.770;9.154;2023-07-20T08:51:30;23.90;87.70
2024;DHT22;1016;48.770;9.154;2023-07-20T08:53:57;23.80;88.10
2024;DHT22;1016;48.770;9.154;2023-07-20T08:56:25;23.80;88.30
2024;DHT22;1016;48.770;9.154;2023-07-20T08:58:53;23.80;88.60
2024;DHT22;1016;48.770;9.154;2023-07-20T09:01:19;23.80;88.80
2024;DHT22;1016;48.770;9.154;2023-07-20T09:03:45;23.80;87.70
2024;DHT22;1016;48.770;9.154;2023-07-20T09:06:12;23.90;88.40
2024;DHT22;1016;48.770;9.154;2023-07-20T09:08:38;23.90;88.90
2024;DHT22;1016;48.770;9.154;2023-07-20T09:11:04;24.00;88.20
2024;DHT22;1016;48.770;9.154;2023-07-20T09:13:32;24.10;87.90
2024;DHT22;1016;48.770;9.154;2023-07-20T09:15:58;24.10;86.90
2024;DHT22;1016;48.770;9.154;2023-07-20T09:18:25;24.10;86.10
2024;DHT22;1016;48.770;9.154;2023-07-20T09:20:51;24.10;84.90
2024;DHT22;1016;48.770;9.154;2023-07-20T09:23:16;24.20;85.20
2024;DHT22;1016;48.770;9.154;2023-07-20T09:25:42;24.20;86.00
2024;DHT22;1016;48.770;9.154;2023-07-20T09:28:07;24.30;85.70
2024;DHT22;1016;48.770;9.154;2023-07-20T09:30:33;24.40;84.90
2024;DHT22;1016;48.770;9.154;2023-07-20T09:32:59;24.40;85.00
2024;DHT22;1016;48.770;9.154;2023-07-20T09:35:25;24.40;85.00
2024;DHT22;1016;48.770;9.154;2023-07-20T09:37:57;24.40;85.30
2024;DHT22;1016;48.770;9.154;2023-07-20T09:40:24;24.40;85.50
2024;DHT22;1016;48.770;9.154;2023-07-20T09:42:52;24.30;84.60
2024;DHT22;1016;48.770;9.154;2023-07-20T09:45:17;24.30;84.80
2024;DHT22;1016;48.770;9.154;2023-07-20T09:47:43;24.30;84.40
2024;DHT22;1016;48.770;9.154;2023-07-20T09:50:09;24.40;84.10
2024;DHT22;1016;48.770;9.154;2023-07-20T09:52:38;24.50;82.50
2024;DHT22;1016;48.770;9.154;2023-07-20T09:55:08;24.50;82.00
2024;DHT22;1016;48.770;9.154;2023-07-20T09:57:35;24.50;80.90
2024;DHT22;1016;48.770;9.154;2023-07-20T10:00:02;24.40;79.80
2024;DHT22;1016;48.770;9.154;2023-07-20T10:02:33;24.40;79.60
2024;DHT22;1016;48.770;9.154;2023-07-20T10:05:03;24.40;80.00
2024;DHT22;1016;48.770;9.154;2023-07-20T10:07:30;24.40;79.70
2024;DHT22;1016;48.770;9.154;2023-07-20T10:09:56;24.40;80.20
2024;DHT22;1016;48.770;9.154;2023-07-20T10:12:25;24.40;80.70
2024;DHT22;1016;48.770;9.154;2023-07-20T10:17:30;24.50;81.40
2024;DHT22;1016;48.770;9.154;2023-07-20T10:19:57;24.50;81.30
2024;DHT22;1016;48.770;9.154;2023-07-20T10:22:27;24.60;81.10
2024;DHT22;1016;48.770;9.154;2023-07-20T10:24:54;24.50;79.30
2024;DHT22;1016;48.770;9.154;2023-07-20T10:27:22;24.50;79.20
2024;DHT22;1016;48.770;9.154;2023-07-20T10:29:48;24.50;78.80
2024;DHT22;1016;48.770;9.154;2023-07-20T10:32:15;24.60;79.10
2024;DHT22;1016;48.770;9.154;2023-07-20T10:34:41;24.60;79.20
2024;DHT22;1016;48.770;9.154;2023-07-20T10:37:07;24.60;79.90
2024;DHT22;1016;48.770;9.154;2023-07-20T10:39:33;24.70;78.90
2024;DHT22;1016;48.770;9.154;2023-07-20T10:42:02;24.70;78.60
2024;DHT22;1016;48.770;9.154;2023-07-20T10:44:28;24.80;78.50
2024;DHT22;1016;48.770;9.154;2023-07-20T10:47:01;24.90;77.50
2024;DHT22;1016;48.770;9.154;2023-07-20T10:49:28;24.90;77.40
2024;DHT22;1016;48.770;9.154;2023-07-20T10:51:58;24.90;77.20
2024;DHT22;1016;48.770;9.154;2023-07-20T10:56:55;25.00;76.30
2024;DHT22;1016;48.770;9.154;2023-07-20T11:01:50;25.10;75.70
2024;DHT22;1016;48.770;9.154;2023-07-20T11:04:17;25.10;75.10
2024;DHT22;1016;48.770;9.154;2023-07-20T11:06:45;25.10;75.00
2024;DHT22;1016;48.770;9.154;2023-07-20T11:09:12;25.10;74.30
2024;DHT22;1016;48.770;9.154;2023-07-20T11:11:43;25.20;73.80
2024;DHT22;1016;48.770;9.154;2023-07-20T11:14:25;25.20;73.30
2024;DHT22;1016;48.770;9.154;2023-07-20T11:16:52;25.20;71.90
2024;DHT22;1016;48.770;9.154;2023-07-20T11:19:23;25.20;72.00
2024;DHT22;1016;48.770;9.154;2023-07-20T11:21:54;25.20;70.50
2024;DHT22;1016;48.770;9.154;2023-07-20T11:24:20;25.20;70.50
2024;DHT22;1016;48.770;9.154;2023-07-20T11:26:48;25.20;70.70
2024;DHT22;1016;48.770;9.154;2023-07-20T11:29:15;25.30;70.10
2024;DHT22;1016;48.770;9.154;2023-07-20T11:31:42;25.30;70.10
2024;DHT22;1016;48.770;9.154;2023-07-20T11:34:11;25.40;70.70
2024;DHT22;1016;48.770;9.154;2023-07-20T11:36:42;25.40;70.10
2024;DHT22;1016;48.770;9.154;2023-07-20T11:39:14;25.40;70.70
2024;DHT22;1016;48.770;9.154;2023-07-20T11:41:47;25.50;70.50
2024;DHT22;1016;48.770;9.154;2023-07-20T11:44:13;25.50;70.80
2024;DHT22;1016;48.770;9.154;2023-07-20T11:46:42;25.50;71.40
2024;DHT22;1016;48.770;9.154;2023-07-20T11:49:08;25.60;70.00
2024;DHT22;1016;48.770;9.154;2023-07-20T11:51:34;25.60;69.80
2024;DHT22;1016;48.770;9.154;2023-07-20T11:54:01;25.60;68.80
2024;DHT22;1016;48.770;9.154;2023-07-20T11:56:27;25.60;69.60
2024;DHT22;1016;48.770;9.154;2023-07-20T11:58:59;25.70;69.10
2024;DHT22;1016;48.770;9.154;2023-07-20T12:01:27;25.70;68.60
2024;DHT22;1016;48.770;9.154;2023-07-20T12:04:00;25.80;68.40
2024;DHT22;1016;48.770;9.154;2023-07-20T12:06:30;25.80;68.50
2024;DHT22;1016;48.770;9.154;2023-07-20T12:08:57;25.80;66.50
2024;DHT22;1016;48.770;9.154;2023-07-20T12:11:38;25.80;66.50
2024;DHT22;1016;48.770;9.154;2023-07-20T12:14:07;25.80;66.60
2024;DHT22;1016;48.770;9.154;2023-07-20T12:16:35;25.80;66.00
2024;DHT22;1016;48.770;9.154;2023-07-20T12:19:09;25.80;65.80
2024;DHT22;1016;48.770;9.154;2023-07-20T12:21:37;25.80;65.70
2024;DHT22;1016;48.770;9.154;2023-07-20T12:24:03;25.90;65.20
2024;DHT22;1016;48.770;9.154;2023-07-20T12:26:30;25.90;64.60
2024;DHT22;1016;48.770;9.154;2023-07-20T12:28:57;25.90;64.80
2024;DHT22;1016;48.770;9.154;2023-07-20T12:31:23;25.80;65.20
2024;DHT22;1016;48.770;9.154;2023-07-20T12:33:50;26.00;64.50
2024;DHT22;1016;48.770;9.154;2023-07-20T12:36:17;26.00;65.00
2024;DHT22;1016;48.770;9.154;2023-07-20T12:41:12;26.10;66.80
2024;DHT22;1016;48.770;9.154;2023-07-20T12:43:38;26.10;66.70
2024;DHT22;1016;48.770;9.154;2023-07-20T12:46:04;26.20;67.90
2024;DHT22;1016;48.770;9.154;2023-07-20T12:48:30;26.10;66.40
2024;DHT22;1016;48.770;9.154;2023-07-20T12:50:56;26.10;65.00
2024;DHT22;1016;48.770;9.154;2023-07-20T12:53:21;26.10;65.10
2024;DHT22;1016;48.770;9.154;2023-07-20T12:55:48;26.10;65.50
2024;DHT22;1016;48.770;9.154;2023-07-20T12:58:13;26.10;65.00
2024;DHT22;1016;48.770;9.154;2023-07-20T13:00:39;26.10;64.20
2024;DHT22;1016;48.770;9.154;2023-07-20T13:03:06;26.20;63.80
2024;DHT22;1016;48.770;9.154;2023-07-20T13:05:32;26.10;63.50
2024;DHT22;1016;48.770;9.154;2023-07-20T13:07:58;26.10;63.20
2024;DHT22;1016;48.770;9.154;2023-07-20T13:10:24;26.20;63.50
2024;DHT22;1016;48.770;9.154;2023-07-20T13:12:49;26.20;63.30
2024;DHT22;1016;48.770;9.154;2023-07-20T13:15:16;26.30;63.90
2024;DHT22;1016;48.770;9.154;2023-07-20T13:17:41;26.30;63.80
2024;DHT22;1016;48.770;9.154;2023-07-20T13:20:09;26.40;64.00
2024;DHT22;1016;48.770;9.154;2023-07-20T13:22:36;26.30;63.40
2024;DHT22;1016;48.770;9.154;2023-07-20T13:25:02;26.30;63.10
2024;DHT22;1016;48.770;9.154;2023-07-20T13:27:28;26.40;63.40
2024;DHT22;1016;48.770;9.154;2023-07-20T13:29:53;26.40;63.20
2024;DHT22;1016;48.770;9.154;2023-07-20T13:32:19;26.50;62.90
2024;DHT22;1016;48.770;9.154;2023-07-20T13:34:45;26.50;62.40
2024;DHT22;1016;48.770;9.154;2023-07-20T13:37:12;26.50;61.80
2024;DHT22;1016;48.770;9.154;2023-07-20T13:39:38;26.60;61.50
2024;DHT22;1016;48.770;9.154;2023-07-20T13:42:04;26.50;61.10
2024;DHT22;1016;48.770;9.154;2023-07-20T13:44:31;26.50;60.80
2024;DHT22;1016;48.770;9.154;2023-07-20T13:46:57;26.60;60.60
2024;DHT22;1016;48.770;9.154;2023-07-20T13:49:22;26.70;60.70
2024;DHT22;1016;48.770;9.154;2023-07-20T13:51:48;26.80;60.60
2024;DHT22;1016;48.770;9.154;2023-07-20T13:54:14;27.80;61.30
2024;DHT22;1016;48.770;9.154;2023-07-20T13:56:39;28.90;60.40
2024;DHT22;1016;48.770;9.154;2023-07-20T13:59:05;29.60;59.40
2024;DHT22;1016;48.770;9.154;2023-07-20T14:01:30;30.20;58.80
2024;DHT22;1016;48.770;9.154;2023-07-20T14:03:58;30.50;58.10
2024;DHT22;1016;48.770;9.154;2023-07-20T14:06:24;30.50;56.30
2024;DHT22;1016;48.770;9.154;2023-07-20T14:08:49;30.10;55.90
2024;DHT22;1016;48.770;9.154;2023-07-20T14:11:16;29.70;55.70
2024;DHT22;1016;48.770;9.154;2023-07-20T14:13:42;29.30;55.60
2024;DHT22;1016;48.770;9.154;2023-07-20T14:16:07;29.00;56.20
2024;DHT22;1016;48.770;9.154;2023-07-20T14:18:33;28.80;56.10
2024;DHT22;1016;48.770;9.154;2023-07-20T14:20:59;28.60;56.00
2024;DHT22;1016;48.770;9.154;2023-07-20T14:23:25;28.60;55.90
2024;DHT22;1016;48.770;9.154;2023-07-20T14:25:50;28.60;56.20
2024;DHT22;1016;48.770;9.154;2023-07-20T14:28:16;28.50;56.00
2024;DHT22;1016;48.770;9.154;2023-07-20T14:30:42;28.50;55.80
2024;DHT22;1016;48.770;9.154;2023-07-20T14:33:07;28.40;55.80
2024;DHT22;1016;48.770;9.154;2023-07-20T14:35:34;28.40;55.80
2024;DHT22;1016;48.770;9.154;2023-07-20T14:38:00;28.30;55.60
2024;DHT22;1016;48.770;9.154;2023-07-20T14:40:26;28.30;55.60
2024;DHT22;1016;48.770;9.154;2023-07-20T14:42:52;28.30;55.50
2024;DHT22;1016;48.770;9.154;2023-07-20T14:45:18;28.10;55.40
2024;DHT22;1016;48.770;9.154;2023-07-20T14:47:44;28.10;55.30
2024;DHT22;1016;48.770;9.154;2023-07-20T14:50:22;28.00;55.40
2024;DHT22;1016;48.770;9.154;2023-07-20T14:52:48;28.00;55.60
2024;DHT22;1016;48.770;9.154;2023-07-20T14:55:13;27.90;55.10
2024;DHT22;1016;48.770;9.154;2023-07-20T14:57:39;27.80;55.20
2024;DHT22;1016;48.770;9.154;2023-07-20T15:00:05;27.80;55.30
2024;DHT22;1016;48.770;9.154;2023-07-20T15:02:36;27.70;55.50
2024;DHT22;1016;48.770;9.154;2023-07-20T15:05:06;27.60;55.70
2024;DHT22;1016;48.770;9.154;2023-07-20T15:07:31;27.60;55.50
2024;DHT22;1016;48.770;9.154;2023-07-20T15:09:57;27.60;55.20
2024;DHT22;1016;48.770;9.154;2023-07-20T15:12:22;27.50;55.00
2024;DHT22;1016;48.770;9.154;2023-07-20T15:15:12;27.50;54.90
2024;DHT22;1016;48.770;9.154;2023-07-20T15:17:39;27.50;55.10
2024;DHT22;1016;48.770;9.154;2023-07-20T15:20:06;27.40;55.30
2024;DHT22;1016;48.770;9.154;2023-07-20T15:22:33;27.40;55.60
2024;DHT22;1016;48.770;9.154;2023-07-20T15:24:59;27.40;55.30
2024;DHT22;1016;48.770;9.154;2023-07-20T15:27:26;27.40;55.10
2024;DHT22;1016;48.770;9.154;2023-07-20T15:29:51;27.30;55.30
2024;DHT22;1016;48.770;9.154;2023-07-20T15:32:20;27.40;55.00
2024;DHT22;1016;48.770;9.154;2023-07-20T15:34:46;27.40;54.80
2024;DHT22;1016;48.770;9.154;2023-07-20T15:37:12;27.70;54.40
2024;DHT22;1016;48.770;9.154;2023-07-20T15:39:37;28.10;54.40
2024;DHT22;1016;48.770;9.154;2023-07-20T15:42:04;28.40;54.30
2024;DHT22;1016;48.770;9.154;2023-07-20T15:44:29;28.30;54.10
2024;DHT22;1016;48.770;9.154;2023-07-20T15:46:55;28.00;54.00
2024;DHT22;1016;48.770;9.154;2023-07-20T15:49:21;27.90;53.90
2024;DHT22;1016;48.770;9.154;2023-07-20T15:51:47;27.70;54.10
2024;DHT22;1016;48.770;9.154;2023-07-20T15:54:14;27.50;54.60
2024;DHT22;1016;48.770;9.154;2023-07-20T15:56:41;27.40;55.20
2024;DHT22;1016;48.770;9.154;2023-07-20T15:59:09;27.40;55.00
2024;DHT22;1016;48.770;9.154;2023-07-20T16:01:35;27.40;55.10
2024;DHT22;1016;48.770;9.154;2023-07-20T16:04:01;27.30;55.20
2024;DHT22;1016;48.770;9.154;2023-07-20T16:06:26;27.10;55.50
2024;DHT22;1016;48.770;9.154;2023-07-20T16:08:52;27.20;55.50
2024;DHT22;1016;48.770;9.154;2023-07-20T16:11:18;27.10;55.30
2024;DHT22;1016;48.770;9.154;2023-07-20T16:13:44;27.00;54.80
2024;DHT22;1016;48.770;9.154;2023-07-20T16:16:10;27.00;54.70
2024;DHT22;1016;48.770;9.154;2023-07-20T16:18:36;27.00;54.90
2024;DHT22;1016;48.770;9.154;2023-07-20T16:21:02;26.90;55.60